Time;durP1;ratioP1;P1;durP2;ratioP2;P2;SDS_P1;SDS_P2;PMS_P1;PMS_P2;Temp;Humidity;BMP_temperature;BMP_pressure;BME280_temperature;BME280_humidity;BME280_pressure;Samples;Min_cycle;Max_cycle;Signal;HPM_P1;HPM_P2
2022/10/17 00:02:27;;;;;;;6.23;5.63;;;14.20;99.90;;;;;;5227003;28;20261;-47
2022/10/17 00:04:58;;;;;;;7.23;5.73;;;14.20;99.90;;;;;;5215460;28;20585;-46
2022/10/17 00:07:30;;;;;;;8.30;5.20;;;14.20;99.90;;;;;;5223653;28;20195;-49
2022/10/17 00:10:00;;;;;;;9.00;5.70;;;14.20;99.90;;;;;;5216900;28;20267;-47
2022/10/17 00:12:31;;;;;;;7.77;5.70;;;14.20;99.90;;;;;;5223545;28;20556;-47
2022/10/17 00:15:04;;;;;;;6.30;4.53;;;14.20;99.90;;;;;;5224514;28;20638;-48
2022/10/17 00:17:35;;;;;;;10.10;4.60;;;14.20;99.90;;;;;;5228550;28;20182;-46
2022/10/17 00:20:06;;;;;;;11.53;5.53;;;14.30;99.90;;;;;;5225169;28;20426;-48
2022/10/17 00:22:36;;;;;;;6.03;5.33;;;14.30;99.90;;;;;;5224188;28;20272;-47
2022/10/17 00:25:08;;;;;;;4.90;4.40;;;14.30;99.90;;;;;;5220047;28;20437;-47
2022/10/17 00:27:39;;;;;;;8.70;5.20;;;14.20;99.90;;;;;;5203185;28;20278;-49
2022/10/17 00:30:13;;;;;;;4.80;4.40;;;14.20;99.90;;;;;;5219029;28;20484;-48
2022/10/17 00:32:44;;;;;;;11.03;5.13;;;14.20;99.90;;;;;;5219215;28;20776;-51
2022/10/17 00:35:15;;;;;;;10.73;5.23;;;14.20;99.90;;;;;;5216925;28;20508;-49
2022/10/17 00:37:45;;;;;;;4.50;4.10;;;14.20;99.90;;;;;;5226355;28;20607;-48
2022/10/17 00:40:16;;;;;;;8.67;4.03;;;14.10;99.90;;;;;;5224991;28;20266;-48
2022/10/17 00:42:50;;;;;;;7.40;4.27;;;14.10;99.90;;;;;;5222951;28;20198;-50
2022/10/17 00:45:29;;;;;;;5.00;4.57;;;14.10;99.90;;;;;;5222383;28;20186;-51
2022/10/17 00:48:08;;;;;;;7.20;4.60;;;14.10;99.90;;;;;;5218056;28;20515;-47
2022/10/17 00:50:42;;;;;;;3.67;3.47;;;14.10;99.90;;;;;;5225446;28;20449;-50
2022/10/17 00:53:13;;;;;;;3.83;3.60;;;14.10;99.90;;;;;;5224999;28;20803;-53
2022/10/17 00:55:49;;;;;;;3.63;3.33;;;14.10;99.90;;;;;;5217588;28;20441;-48
2022/10/17 00:58:20;;;;;;;3.87;3.37;;;14.10;99.90;;;;;;5220868;28;20467;-48
2022/10/17 01:00:50;;;;;;;4.87;3.30;;;14.20;99.90;;;;;;5222153;28;20806;-47
2022/10/17 01:03:21;;;;;;;5.40;4.17;;;14.10;99.90;;;;;;5224955;28;20430;-47
2022/10/17 01:05:52;;;;;;;4.90;4.40;;;14.20;99.90;;;;;;5225781;28;20190;-48
2022/10/17 01:08:23;;;;;;;4.80;4.47;;;14.20;99.90;;;;;;5224072;28;20420;-48
2022/10/17 01:11:20;;;;;;;5.43;4.10;;;14.20;99.90;;;;;;5224049;28;20644;-48
2022/10/17 01:14:11;;;;;;;4.20;3.90;;;14.20;99.90;;;;;;5221504;28;20194;-47
2022/10/17 01:16:54;;;;;;;5.80;3.60;;;14.20;99.90;;;;;;5224448;28;20945;-50
2022/10/17 01:20:16;;;;;;;4.47;4.00;;;14.20;99.90;;;;;;5227523;28;20463;-53
2022/10/17 01:23:17;;;;;;;7.23;3.30;;;14.20;99.90;;;;;;5207250;28;20429;-49
2022/10/17 01:26:05;;;;;;;4.30;3.90;;;14.10;99.90;;;;;;5216631;28;20426;-48
2022/10/17 01:29:04;;;;;;;14.47;3.60;;;14.00;99.90;;;;;;5222105;28;20468;-48
2022/10/17 01:31:44;;;;;;;3.80;3.50;;;13.90;99.90;;;;;;5225326;28;20590;-47
2022/10/17 01:34:20;;;;;;;3.70;3.10;;;13.80;99.90;;;;;;5223923;28;20449;-51
2022/10/17 01:37:01;;;;;;;3.43;3.13;;;13.80;99.90;;;;;;5219314;28;20430;-48
2022/10/17 01:39:52;;;;;;;8.67;3.23;;;13.80;99.90;;;;;;5220350;28;20822;-46
2022/10/17 01:42:34;;;;;;;3.67;3.47;;;13.80;99.90;;;;;;5222377;28;20441;-47
2022/10/17 01:45:24;;;;;;;4.50;4.10;;;13.90;99.90;;;;;;5214174;28;21000;-48
2022/10/17 01:47:59;;;;;;;3.73;3.30;;;14.00;99.90;;;;;;5220578;28;20477;-54
2022/10/17 01:50:40;;;;;;;11.17;3.53;;;14.00;99.90;;;;;;5222965;28;20512;-47
2022/10/17 01:53:44;;;;;;;3.13;2.93;;;14.00;99.90;;;;;;5220354;28;20559;-47
2022/10/17 01:56:17;;;;;;;6.30;4.00;;;13.90;99.90;;;;;;5207646;28;20434;-48
2022/10/17 01:58:56;;;;;;;5.80;3.60;;;13.90;99.90;;;;;;5217194;28;20457;-47
2022/10/17 02:01:29;;;;;;;4.47;4.07;;;13.80;99.90;;;;;;5222531;28;20514;-48
2022/10/17 02:04:01;;;;;;;4.70;4.30;;;13.80;99.90;;;;;;5204754;28;20491;-49
2022/10/17 02:06:36;;;;;;;3.80;3.60;;;13.80;99.90;;;;;;5217699;28;20438;-49
2022/10/17 02:09:18;;;;;;;4.90;4.50;;;13.80;99.90;;;;;;5223846;28;20473;-48
2022/10/17 02:11:52;;;;;;;4.07;3.87;;;13.70;99.90;;;;;;5237906;28;20548;-47
2022/10/17 02:14:49;;;;;;;4.67;4.37;;;13.70;99.90;;;;;;5218907;28;20752;-48
2022/10/17 02:17:32;;;;;;;6.57;4.97;;;13.70;99.90;;;;;;5221768;28;20503;-47
2022/10/17 02:20:23;;;;;;;4.40;4.13;;;13.60;99.90;;;;;;5227176;28;20843;-46
2022/10/17 02:23:20;;;;;;;5.50;4.50;;;13.60;99.90;;;;;;5214189;28;20832;-48
2022/10/17 02:26:10;;;;;;;5.07;4.70;;;13.60;99.90;;;;;;5224698;28;20516;-48
2022/10/17 02:28:49;;;;;;;7.73;5.07;;;13.60;99.90;;;;;;5222498;28;20472;-48
2022/10/17 02:31:35;;;;;;;5.50;5.07;;;13.60;99.90;;;;;;5224925;28;20551;-47
2022/10/17 02:34:14;;;;;;;5.57;5.07;;;13.60;99.90;;;;;;5218056;28;20483;-52
2022/10/17 02:36:52;;;;;;;4.90;4.60;;;13.60;99.90;;;;;;5215851;28;20540;-54
2022/10/17 02:39:25;;;;;;;5.37;5.03;;;13.70;99.90;;;;;;5218923;28;20456;-48
2022/10/17 02:42:01;;;;;;;6.80;4.63;;;13.80;99.90;;;;;;5211230;28;20520;-53
2022/10/17 02:44:32;;;;;;;5.67;4.10;;;13.80;99.90;;;;;;5227389;28;20490;-56
2022/10/17 02:47:11;;;;;;;4.40;4.20;;;13.90;99.90;;;;;;5219150;28;20441;-46
2022/10/17 02:49:46;;;;;;;5.80;4.20;;;13.90;99.90;;;;;;5221998;28;20512;-51
2022/10/17 02:52:38;;;;;;;5.40;4.90;;;13.90;99.90;;;;;;5220467;28;20464;-47
2022/10/17 02:55:17;;;;;;;4.97;4.67;;;13.90;99.90;;;;;;5220691;28;20434;-47
2022/10/17 02:57:52;;;;;;;5.37;4.97;;;13.80;99.90;;;;;;5221718;28;20975;-46
2022/10/17 03:00:24;;;;;;;6.40;5.03;;;13.80;99.90;;;;;;5246809;28;20946;-48
2022/10/17 03:02:55;;;;;;;4.10;3.90;;;13.80;99.90;;;;;;5233773;28;20884;-47
2022/10/17 03:05:28;;;;;;;4.50;4.10;;;13.80;99.90;;;;;;5236297;28;20469;-48
2022/10/17 03:07:59;;;;;;;9.00;5.07;;;13.80;99.90;;;;;;5234308;28;20690;-48
2022/10/17 03:10:29;;;;;;;5.40;5.10;;;13.70;99.90;;;;;;5235208;28;20490;-47
2022/10/17 03:13:00;;;;;;;8.53;5.40;;;13.70;99.90;;;;;;5236975;28;20182;-46
2022/10/17 03:15:30;;;;;;;4.70;4.17;;;13.60;99.90;;;;;;5233738;28;20191;-47
2022/10/17 03:18:01;;;;;;;5.87;4.50;;;13.60;99.90;;;;;;5233695;28;20302;-47
2022/10/17 03:20:32;;;;;;;5.40;5.00;;;13.50;99.90;;;;;;5231983;28;20229;-46
2022/10/17 03:23:02;;;;;;;5.33;4.83;;;13.50;99.90;;;;;;5232254;28;20562;-47
2022/10/17 03:25:33;;;;;;;4.50;4.17;;;13.60;99.90;;;;;;5235456;28;20194;-53
2022/10/17 03:28:04;;;;;;;5.73;5.17;;;13.60;99.90;;;;;;5234470;28;20209;-47
2022/10/17 03:30:37;;;;;;;6.03;5.53;;;13.70;99.90;;;;;;5236159;28;20187;-46
2022/10/17 03:33:07;;;;;;;5.83;4.87;;;13.70;99.90;;;;;;5233634;28;20493;-46
2022/10/17 03:35:41;;;;;;;5.57;5.17;;;13.70;99.90;;;;;;5239031;28;20516;-46
2022/10/17 03:38:11;;;;;;;5.10;4.90;;;13.80;99.90;;;;;;5235030;28;20694;-46
2022/10/17 03:40:42;;;;;;;5.70;5.07;;;13.80;99.90;;;;;;5232720;28;20433;-46
2022/10/17 03:43:13;;;;;;;7.73;4.90;;;13.80;99.90;;;;;;5231590;28;20191;-46
2022/10/17 03:45:43;;;;;;;12.63;5.50;;;13.80;99.90;;;;;;5229834;28;20288;-48
2022/10/17 03:48:14;;;;;;;4.97;4.57;;;13.80;99.90;;;;;;5230187;28;20225;-48
2022/10/17 03:50:44;;;;;;;5.67;5.27;;;13.80;99.90;;;;;;5230806;28;20179;-51
2022/10/17 03:53:15;;;;;;;5.67;5.17;;;13.70;99.90;;;;;;5230597;28;20187;-49
2022/10/17 03:55:45;;;;;;;6.10;5.50;;;13.70;99.90;;;;;;5229785;28;20224;-46
2022/10/17 03:58:16;;;;;;;4.90;4.50;;;13.70;99.90;;;;;;5231758;28;20210;-47
2022/10/17 04:00:47;;;;;;;5.90;5.40;;;13.70;99.90;;;;;;5232412;28;20186;-47
2022/10/17 04:03:17;;;;;;;5.40;5.00;;;13.70;99.90;;;;;;5235023;28;20312;-47
2022/10/17 04:05:48;;;;;;;5.67;5.03;;;13.70;99.90;;;;;;5225881;28;20182;-47
2022/10/17 04:08:19;;;;;;;15.83;5.87;;;13.70;99.90;;;;;;5221681;28;20252;-46
2022/10/17 04:10:49;;;;;;;6.40;6.00;;;13.70;99.90;;;;;;5225903;28;20194;-46
2022/10/17 04:13:20;;;;;;;5.80;5.30;;;13.70;99.90;;;;;;5221599;28;20183;-50
2022/10/17 04:15:55;;;;;;;8.77;5.60;;;13.60;99.90;;;;;;5225117;28;20236;-46
2022/10/17 04:18:26;;;;;;;7.10;5.53;;;13.60;99.90;;;;;;5231973;28;20203;-47
2022/10/17 04:20:57;;;;;;;6.40;5.77;;;13.50;99.90;;;;;;5230471;28;20436;-46
2022/10/17 04:23:27;;;;;;;6.77;6.17;;;13.50;99.90;;;;;;5226489;28;20191;-46
2022/10/17 04:25:59;;;;;;;6.37;5.80;;;13.50;99.90;;;;;;5222880;28;20182;-47
2022/10/17 04:28:31;;;;;;;8.37;5.87;;;13.50;99.90;;;;;;5222465;28;20199;-47
2022/10/17 04:31:08;;;;;;;6.73;6.10;;;13.50;99.90;;;;;;5226333;28;20812;-48
2022/10/17 04:33:39;;;;;;;7.27;6.67;;;13.50;99.90;;;;;;5236979;28;20533;-47
2022/10/17 04:36:12;;;;;;;8.00;6.50;;;13.50;99.90;;;;;;5232605;28;20453;-48
2022/10/17 04:38:43;;;;;;;7.13;6.50;;;13.50;99.90;;;;;;5231002;28;20969;-45
2022/10/17 04:41:16;;;;;;;8.37;6.03;;;13.50;99.90;;;;;;5226379;28;20921;-47
2022/10/17 04:43:46;;;;;;;6.27;5.77;;;13.50;99.90;;;;;;5223940;28;20913;-45
2022/10/17 04:46:17;;;;;;;6.93;6.10;;;13.50;99.90;;;;;;5207165;28;20435;-46
2022/10/17 04:48:48;;;;;;;8.23;6.43;;;13.50;99.90;;;;;;5216384;28;20233;-51
2022/10/17 04:51:19;;;;;;;13.70;7.20;;;13.50;99.90;;;;;;5224924;28;20222;-46
2022/10/17 04:53:50;;;;;;;7.17;6.53;;;13.50;99.90;;;;;;5221334;28;20444;-45
2022/10/17 04:56:23;;;;;;;7.33;6.30;;;13.50;99.90;;;;;;5227056;28;20425;-47
2022/10/17 04:58:53;;;;;;;6.70;6.20;;;13.40;99.90;;;;;;5227115;28;20199;-47
2022/10/17 05:01:25;;;;;;;7.80;7.00;;;13.40;99.90;;;;;;5225046;28;20618;-47
2022/10/17 05:03:56;;;;;;;7.13;6.43;;;13.40;99.90;;;;;;5213724;28;20741;-47
2022/10/17 05:06:27;;;;;;;9.93;7.43;;;13.40;99.90;;;;;;5229010;28;20536;-46
2022/10/17 05:08:58;;;;;;;7.97;7.17;;;13.40;99.90;;;;;;5224149;28;20203;-46
2022/10/17 05:11:28;;;;;;;7.10;6.43;;;13.40;99.90;;;;;;5225040;28;20457;-46
2022/10/17 05:14:00;;;;;;;12.60;6.40;;;13.40;99.90;;;;;;5221326;28;20186;-53
2022/10/17 05:16:31;;;;;;;7.80;7.03;;;13.30;99.90;;;;;;5207941;28;20206;-46
2022/10/17 05:19:02;;;;;;;8.33;6.80;;;13.30;99.90;;;;;;5220720;28;20473;-47
2022/10/17 05:21:33;;;;;;;11.30;8.40;;;13.30;99.90;;;;;;5227252;28;20189;-53
2022/10/17 05:24:05;;;;;;;11.73;7.23;;;13.20;99.90;;;;;;5234554;28;20421;-48
2022/10/17 05:26:36;;;;;;;9.20;7.07;;;13.20;99.90;;;;;;5228546;28;20730;-45
2022/10/17 05:29:06;;;;;;;7.30;6.80;;;13.20;99.90;;;;;;5225395;28;20540;-46
2022/10/17 05:31:37;;;;;;;16.97;7.10;;;13.20;99.90;;;;;;5223253;28;20644;-46
2022/10/17 05:34:07;;;;;;;7.90;7.20;;;13.20;99.90;;;;;;5225474;28;20498;-47
2022/10/17 05:36:38;;;;;;;9.67;8.17;;;13.20;99.90;;;;;;5225631;28;20225;-46
2022/10/17 05:39:13;;;;;;;7.67;7.07;;;13.20;99.90;;;;;;5218744;28;20203;-47
2022/10/17 05:41:45;;;;;;;19.43;7.10;;;13.20;99.90;;;;;;5219649;28;20647;-46
2022/10/17 05:44:15;;;;;;;7.70;7.00;;;13.20;99.90;;;;;;5224352;28;20432;-46
2022/10/17 05:46:48;;;;;;;9.83;6.67;;;13.20;99.90;;;;;;5221745;28;20507;-47
2022/10/17 05:49:19;;;;;;;7.00;6.50;;;13.30;99.90;;;;;;5215491;28;20211;-52
2022/10/17 05:51:49;;;;;;;11.00;8.20;;;13.20;99.90;;;;;;5225211;28;20465;-46
2022/10/17 05:54:20;;;;;;;7.50;6.80;;;13.30;99.90;;;;;;5203111;28;20652;-47
2022/10/17 05:56:55;;;;;;;7.43;6.80;;;13.30;99.90;;;;;;5224528;28;20702;-46
2022/10/17 05:59:25;;;;;;;7.57;6.87;;;13.40;99.90;;;;;;5226318;28;20195;-49
2022/10/17 06:01:56;;;;;;;10.23;7.53;;;13.40;99.90;;;;;;5221656;28;20460;-48
2022/10/17 06:04:27;;;;;;;7.60;6.90;;;13.50;99.90;;;;;;5228124;28;20186;-51
2022/10/17 06:06:58;;;;;;;6.93;6.33;;;13.50;99.90;;;;;;5224001;28;20172;-46
2022/10/17 06:09:28;;;;;;;7.27;6.67;;;13.60;99.90;;;;;;5225241;28;20506;-50
2022/10/17 06:11:59;;;;;;;17.10;7.40;;;13.70;99.90;;;;;;5225250;28;20207;-50
2022/10/17 06:14:29;;;;;;;7.57;6.17;;;13.80;99.90;;;;;;5223499;28;20288;-50
2022/10/17 06:17:00;;;;;;;9.53;5.87;;;14.00;99.90;;;;;;5225540;28;20183;-48
2022/10/17 06:19:30;;;;;;;7.23;6.17;;;14.20;99.90;;;;;;5225517;28;20199;-48
2022/10/17 06:22:01;;;;;;;7.07;6.47;;;14.40;99.90;;;;;;5222759;28;20175;-49
2022/10/17 06:24:32;;;;;;;6.33;5.57;;;14.50;99.90;;;;;;5225512;28;20715;-49
2022/10/17 06:27:02;;;;;;;5.80;5.30;;;14.80;99.90;;;;;;5225626;28;20271;-48
2022/10/17 06:29:33;;;;;;;5.03;4.60;;;15.40;99.90;;;;;;5226749;28;20301;-49
2022/10/17 06:32:04;;;;;;;5.83;5.33;;;16.10;99.90;;;;;;5224383;28;20215;-50
2022/10/17 06:34:34;;;;;;;4.67;4.20;;;16.90;99.90;;;;;;5223475;28;20187;-48
2022/10/17 06:37:05;;;;;;;6.50;4.40;;;17.50;99.90;;;;;;5224056;28;20297;-50
2022/10/17 06:39:36;;;;;;;5.47;4.70;;;17.70;99.90;;;;;;5226457;28;20206;-49
2022/10/17 06:42:06;;;;;;;5.17;4.70;;;17.70;99.90;;;;;;5227179;28;20182;-48
2022/10/17 06:44:38;;;;;;;7.40;4.37;;;17.80;99.90;;;;;;5226107;28;20229;-49
2022/10/17 06:47:09;;;;;;;13.93;5.27;;;17.90;99.90;;;;;;5227566;28;20191;-49
2022/10/17 06:49:40;;;;;;;6.50;4.63;;;18.10;99.90;;;;;;5221466;28;20483;-48
2022/10/17 06:52:11;;;;;;;9.77;4.27;;;18.20;99.90;;;;;;5226787;28;20469;-50
2022/10/17 06:54:42;;;;;;;7.20;4.90;;;18.30;99.90;;;;;;5227256;28;20268;-49
2022/10/17 06:57:12;;;;;;;4.80;4.50;;;18.20;99.90;;;;;;5225157;28;20259;-49
2022/10/17 06:59:43;;;;;;;5.57;5.10;;;18.10;99.90;;;;;;5225891;28;20485;-50
2022/10/17 07:02:14;;;;;;;3.97;3.67;;;18.10;99.90;;;;;;5223300;28;20289;-49
2022/10/17 07:04:46;;;;;;;8.33;4.53;;;18.20;99.90;;;;;;5212008;28;20192;-49
2022/10/17 07:07:16;;;;;;;4.90;4.07;;;18.70;99.90;;;;;;5219610;28;20651;-49
2022/10/17 07:09:47;;;;;;;4.50;4.10;;;19.00;99.90;;;;;;5224127;28;20453;-49
2022/10/17 07:12:17;;;;;;;6.70;4.60;;;19.40;99.90;;;;;;5218160;28;20207;-49
2022/10/17 07:14:49;;;;;;;4.20;3.80;;;20.00;99.90;;;;;;5224235;28;20218;-49
2022/10/17 07:17:19;;;;;;;4.23;3.93;;;20.70;99.90;;;;;;5204177;28;20172;-48
2022/10/17 07:19:50;;;;;;;4.10;3.50;;;21.10;99.90;;;;;;5223236;28;20442;-49
2022/10/17 07:22:21;;;;;;;4.60;4.13;;;21.10;99.90;;;;;;5222692;28;20187;-47
2022/10/17 07:24:52;;;;;;;6.30;4.50;;;20.60;99.90;;;;;;5222184;28;20217;-49
2022/10/17 07:27:22;;;;;;;3.80;3.50;;;19.70;99.90;;;;;;5219699;28;20198;-48
2022/10/17 07:29:53;;;;;;;4.67;4.27;;;19.00;99.90;;;;;;5223469;28;20191;-48
2022/10/17 07:32:23;;;;;;;5.47;3.93;;;18.40;99.90;;;;;;5221716;28;20317;-48
2022/10/17 07:34:54;;;;;;;3.80;3.53;;;18.20;99.90;;;;;;5227407;28;20187;-49
2022/10/17 07:37:24;;;;;;;4.20;3.90;;;17.90;99.90;;;;;;5217937;28;20191;-49
2022/10/17 07:39:55;;;;;;;3.57;3.17;;;17.80;99.90;;;;;;5208917;28;20179;-48
2022/10/17 07:42:27;;;;;;;4.40;4.00;;;17.70;99.90;;;;;;5225203;28;20187;-47
2022/10/17 07:44:57;;;;;;;4.17;3.80;;;17.70;99.90;;;;;;5230672;28;20179;-48
2022/10/17 07:47:29;;;;;;;4.00;3.73;;;17.70;99.90;;;;;;5227364;28;20448;-46
2022/10/17 07:50:01;;;;;;;4.93;4.00;;;17.60;99.90;;;;;;5230738;28;20559;-47
2022/10/17 07:52:32;;;;;;;6.10;4.10;;;17.50;99.90;;;;;;5227347;28;20531;-47
2022/10/17 07:55:03;;;;;;;4.13;3.73;;;17.50;99.90;;;;;;5221461;28;20424;-47
2022/10/17 07:57:33;;;;;;;11.83;4.50;;;17.40;99.90;;;;;;5244586;28;20194;-46
2022/10/17 08:00:05;;;;;;;9.83;3.70;;;17.40;99.90;;;;;;5233888;28;20313;-48
2022/10/17 08:02:36;;;;;;;4.17;3.70;;;17.30;99.90;;;;;;5229356;28;20186;-46
2022/10/17 08:05:07;;;;;;;6.37;4.20;;;17.50;99.90;;;;;;5226687;28;20433;-47
2022/10/17 08:07:37;;;;;;;6.80;3.90;;;17.50;99.90;;;;;;5226641;28;20191;-48
2022/10/17 08:10:11;;;;;;;4.37;3.90;;;17.50;99.90;;;;;;5226067;28;20608;-47
2022/10/17 08:12:42;;;;;;;4.10;3.80;;;17.50;99.90;;;;;;5234619;28;20767;-46
2022/10/17 08:15:13;;;;;;;5.70;3.43;;;17.50;99.90;;;;;;5229355;28;20532;-48
2022/10/17 08:17:43;;;;;;;4.47;3.60;;;17.60;99.90;;;;;;5218559;28;20191;-46
2022/10/17 08:20:14;;;;;;;4.93;3.93;;;17.80;99.90;;;;;;5230333;28;20194;-46
2022/10/17 08:22:51;;;;;;;4.57;4.17;;;17.90;99.90;;;;;;5218853;28;20324;-46
2022/10/17 08:25:22;;;;;;;4.77;3.97;;;17.80;99.90;;;;;;5229819;28;20721;-48
2022/10/17 08:27:52;;;;;;;3.97;3.63;;;17.80;99.90;;;;;;5226227;28;20575;-47
2022/10/17 08:30:23;;;;;;;3.80;3.50;;;18.00;99.90;;;;;;5220346;28;20445;-46
2022/10/17 08:32:55;;;;;;;4.60;3.90;;;18.10;99.90;;;;;;5224116;28;20213;-45
2022/10/17 08:35:25;;;;;;;5.10;3.70;;;18.10;99.90;;;;;;5226805;28;20186;-46
2022/10/17 08:38:00;;;;;;;4.20;3.93;;;18.30;99.90;;;;;;5227768;28;20449;-47
2022/10/17 08:40:32;;;;;;;5.60;3.80;;;18.30;99.90;;;;;;5221516;28;20175;-45
2022/10/17 08:43:18;;;;;;;6.13;3.00;;;18.50;99.90;;;;;;5223647;28;20463;-46
2022/10/17 08:45:55;;;;;;;6.73;3.23;;;18.60;99.90;;;;;;5226956;28;20526;-46
2022/10/17 08:48:28;;;;;;;3.10;2.90;;;18.80;99.90;;;;;;5222741;28;20479;-49
2022/10/17 08:51:04;;;;;;;4.00;3.70;;;18.80;99.90;;;;;;5228211;28;20434;-47
2022/10/17 08:53:41;;;;;;;4.60;3.10;;;18.90;99.90;;;;;;5226773;28;20794;-50
2022/10/17 08:56:19;;;;;;;4.43;3.30;;;18.80;99.90;;;;;;5230157;28;20588;-50
2022/10/17 08:58:50;;;;;;;3.33;2.73;;;18.80;99.90;;;;;;5226544;28;20794;-49
2022/10/17 09:02:19;;;;;;;12.33;3.10;;;18.90;99.90;;;;;;5223368;28;20444;-49
2022/10/17 09:05:20;;;;;;;4.27;2.97;;;19.00;99.90;;;;;;5211257;28;20206;-48
2022/10/17 09:08:18;;;;;;;5.97;3.40;;;19.10;99.90;;;;;;5222323;28;21041;-47
2022/10/17 09:11:08;;;;;;;6.00;3.53;;;19.20;99.90;;;;;;5227943;28;20468;-50
2022/10/17 09:13:45;;;;;;;9.80;2.90;;;19.40;99.90;;;;;;5228313;28;20441;-49
2022/10/17 09:16:29;;;;;;;3.23;2.90;;;19.40;99.90;;;;;;5226020;28;20437;-50
2022/10/17 09:19:14;;;;;;;3.20;2.97;;;19.60;99.90;;;;;;5226123;28;20469;-49
2022/10/17 09:21:57;;;;;;;3.47;3.17;;;19.60;99.90;;;;;;5215449;28;20563;-50
2022/10/17 09:24:30;;;;;;;5.33;2.40;;;19.70;99.90;;;;;;5221697;28;20836;-48
2022/10/17 09:27:02;;;;;;;3.57;3.10;;;19.80;99.90;;;;;;5220703;28;20437;-53
2022/10/17 09:29:33;;;;;;;3.90;3.63;;;19.80;99.90;;;;;;5227098;28;20999;-54
2022/10/17 09:32:16;;;;;;;3.03;2.87;;;20.00;99.90;;;;;;5229373;28;20448;-49
2022/10/17 09:34:46;;;;;;;2.87;2.63;;;20.00;99.90;;;;;;5222938;28;20180;-52
2022/10/17 09:37:18;;;;;;;2.87;2.67;;;20.20;99.90;;;;;;5224330;28;20444;-51
2022/10/17 09:39:48;;;;;;;2.80;2.70;;;20.30;99.90;;;;;;5226436;28;20183;-52
2022/10/17 09:42:25;;;;;;;3.90;2.97;;;20.20;99.90;;;;;;5223939;28;20437;-50
2022/10/17 09:45:18;;;;;;;5.10;2.37;;;20.20;99.90;;;;;;5225830;28;20542;-51
2022/10/17 09:48:00;;;;;;;2.90;2.63;;;20.40;99.90;;;;;;5244873;23;20622;-50
2022/10/17 09:50:33;;;;;;;2.70;2.50;;;20.60;99.90;;;;;;5188369;28;20462;-51
2022/10/17 09:53:17;;;;;;;5.03;3.03;;;20.60;99.90;;;;;;5187680;28;20491;-51
2022/10/17 09:55:57;;;;;;;3.23;2.63;;;20.60;99.90;;;;;;5188357;28;20445;-54
2022/10/17 09:58:52;;;;;;;4.57;2.83;;;20.60;99.90;;;;;;5182614;28;20436;-50
2022/10/17 10:01:25;;;;;;;6.93;2.60;;;20.70;99.90;;;;;;5167392;28;20468;-53
2022/10/17 10:04:16;;;;;;;4.20;2.50;;;20.80;99.90;;;;;;5166590;28;20439;-55
2022/10/17 10:07:05;;;;;;;8.50;2.97;;;20.90;99.90;;;;;;5165419;28;20439;-50
2022/10/17 10:09:36;;;;;;;6.10;3.50;;;20.90;99.90;;;;;;5165392;28;20456;-52
2022/10/17 10:12:19;;;;;;;4.97;2.83;;;21.00;99.90;;;;;;5167038;28;20822;-51
2022/10/17 10:14:50;;;;;;;3.00;2.80;;;21.20;99.90;;;;;;5164593;28;20741;-51
2022/10/17 10:17:26;;;;;;;3.77;2.23;;;21.40;99.90;;;;;;5164521;28;20435;-51
2022/10/17 10:19:57;;;;;;;3.00;2.80;;;21.60;99.90;;;;;;5167387;28;20811;-51
2022/10/17 10:22:28;;;;;;;2.30;2.10;;;21.80;99.90;;;;;;5164712;28;20486;-54
2022/10/17 10:25:16;;;;;;;1.87;1.87;;;21.70;99.90;;;;;;5163317;28;20189;-52
2022/10/17 10:27:46;;;;;;;2.27;2.13;;;21.80;99.90;;;;;;5164608;28;20184;-52
2022/10/17 10:30:23;;;;;;;7.23;2.33;;;21.90;99.90;;;;;;5164660;28;20447;-51
2022/10/17 10:32:56;;;;;;;2.20;2.10;;;22.00;99.90;;;;;;5167412;28;20221;-51
2022/10/17 10:35:32;;;;;;;2.80;2.50;;;22.00;99.90;;;;;;5146668;28;20812;-52
2022/10/17 10:38:09;;;;;;;3.57;3.00;;;22.10;99.90;;;;;;5167588;28;20539;-52
2022/10/17 10:40:50;;;;;;;3.70;2.57;;;22.20;99.90;;;;;;5164782;28;20511;-51
2022/10/17 10:43:39;;;;;;;10.07;2.87;;;22.40;99.90;;;;;;5168672;28;20408;-52
2022/10/17 10:46:21;;;;;;;4.37;3.57;;;22.40;99.90;;;;;;5165085;28;20482;-51
2022/10/17 10:48:58;;;;;;;5.60;3.17;;;22.50;99.90;;;;;;5168129;28;20470;-51
2022/10/17 10:51:43;;;;;;;2.53;2.33;;;22.50;99.90;;;;;;5163565;28;20521;-51
2022/10/17 10:54:20;;;;;;;4.43;3.67;;;22.50;99.90;;;;;;5168509;28;20428;-51
2022/10/17 10:56:58;;;;;;;4.60;3.33;;;22.60;99.90;;;;;;5184836;28;20447;-52
2022/10/17 10:59:36;;;;;;;5.30;4.10;;;22.60;99.90;;;;;;5181110;28;20451;-53
2022/10/17 11:02:11;;;;;;;4.97;3.60;;;22.60;99.90;;;;;;5167014;28;20522;-51
2022/10/17 11:04:54;;;;;;;3.93;3.00;;;22.70;99.90;;;;;;5182540;28;20490;-50
2022/10/17 11:07:32;;;;;;;3.57;3.27;;;22.70;99.90;;;;;;5181911;28;20955;-52
2022/10/17 11:10:24;;;;;;;3.40;3.10;;;22.70;99.90;;;;;;5164785;28;20955;-53
2022/10/17 11:13:05;;;;;;;2.73;2.47;;;22.70;99.90;;;;;;5158432;28;20546;-52
2022/10/17 11:15:41;;;;;;;2.17;2.03;;;22.80;99.90;;;;;;5164117;28;20459;-51
2022/10/17 11:18:37;;;;;;;12.50;4.07;;;22.90;99.90;;;;;;5161267;28;20459;-52
2022/10/17 11:21:27;;;;;;;7.03;3.27;;;23.00;99.90;;;;;;5174939;28;20640;-51
2022/10/17 11:24:10;;;;;;;5.10;2.60;;;23.10;99.90;;;;;;5165358;28;20436;-51
2022/10/17 11:26:49;;;;;;;2.93;2.60;;;23.20;99.90;;;;;;5162255;28;20435;-52
2022/10/17 11:29:26;;;;;;;4.03;2.00;;;23.20;99.90;;;;;;5163805;28;20455;-50
2022/10/17 11:32:19;;;;;;;4.40;3.20;;;23.10;99.90;;;;;;5163442;28;20474;-53
2022/10/17 11:35:15;;;;;;;4.50;4.10;;;23.10;99.90;;;;;;5158356;28;20423;-52
2022/10/17 11:37:54;;;;;;;6.13;3.10;;;23.20;99.90;;;;;;5159358;28;20428;-52
2022/10/17 11:40:30;;;;;;;4.37;3.80;;;23.20;99.90;;;;;;5166022;28;20451;-50
2022/10/17 11:43:10;;;;;;;2.53;2.43;;;23.30;99.30;;;;;;5165850;28;20447;-51
2022/10/17 11:45:47;;;;;;;3.87;3.50;;;23.30;99.60;;;;;;5168736;28;20963;-50
2022/10/17 11:48:41;;;;;;;8.47;3.77;;;23.30;98.50;;;;;;5180292;28;20474;-51
2022/10/17 11:51:13;;;;;;;4.90;2.50;;;23.30;98.50;;;;;;5165335;28;20606;-51
2022/10/17 11:53:55;;;;;;;3.20;2.90;;;23.40;98.50;;;;;;5166011;28;20443;-50
2022/10/17 11:57:03;;;;;;;4.73;3.10;;;23.40;98.00;;;;;;5164182;28;20769;-51
2022/10/17 12:00:05;;;;;;;3.70;2.40;;;23.70;96.40;;;;;;5167071;28;21058;-51
2022/10/17 12:02:48;;;;;;;2.27;2.07;;;23.70;96.00;;;;;;5163325;28;20451;-52
2022/10/17 12:05:27;;;;;;;4.83;2.33;;;23.80;95.40;;;;;;5176743;28;20964;-52
2022/10/17 12:08:08;;;;;;;3.50;1.90;;;23.90;95.30;;;;;;5164779;28;20423;-50
2022/10/17 12:10:47;;;;;;;10.03;2.70;;;23.80;94.50;;;;;;5165737;28;20490;-53
2022/10/17 12:13:47;;;;;;;3.20;3.00;;;23.90;94.80;;;;;;5167115;28;20471;-50
2022/10/17 12:16:20;;;;;;;3.10;2.30;;;24.10;94.00;;;;;;5168225;28;20498;-50
2022/10/17 12:19:18;;;;;;;7.60;2.60;;;24.10;92.90;;;;;;5164399;28;20470;-50
2022/10/17 12:22:15;;;;;;;9.53;3.03;;;24.30;92.30;;;;;;5165250;28;20507;-50
2022/10/17 12:25:01;;;;;;;6.03;1.67;;;24.40;92.30;;;;;;5163568;28;20439;-51
2022/10/17 12:27:45;;;;;;;5.80;2.33;;;24.70;91.90;;;;;;5180104;28;20436;-50
2022/10/17 12:30:24;;;;;;;2.00;1.90;;;24.50;91.30;;;;;;5169746;28;20440;-50
2022/10/17 12:33:21;;;;;;;3.60;2.17;;;24.60;91.10;;;;;;5174683;28;20526;-52
2022/10/17 12:36:19;;;;;;;2.20;2.10;;;24.50;90.30;;;;;;5166483;28;20503;-51
2022/10/17 12:38:51;;;;;;;3.40;3.20;;;24.30;90.40;;;;;;5164385;28;20562;-51
2022/10/17 12:41:40;;;;;;;2.57;2.40;;;24.30;89.80;;;;;;5169448;28;20434;-52
2022/10/17 12:44:13;;;;;;;3.50;3.30;;;24.40;90.00;;;;;;5168707;28;20482;-52
2022/10/17 12:46:44;;;;;;;2.23;2.13;;;24.50;89.40;;;;;;5169301;28;20779;-53
2022/10/17 12:49:20;;;;;;;18.47;2.80;;;24.40;89.00;;;;;;5166302;28;20475;-51
2022/10/17 12:52:14;;;;;;;8.30;3.53;;;24.40;89.30;;;;;;5161089;28;20207;-52
2022/10/17 12:54:58;;;;;;;6.40;4.27;;;24.40;88.40;;;;;;5180448;28;20448;-52
2022/10/17 12:57:40;;;;;;;4.33;3.37;;;24.40;89.10;;;;;;5166439;28;20562;-53
2022/10/17 13:00:26;;;;;;;3.63;3.20;;;24.30;88.70;;;;;;5166075;28;20490;-52
2022/10/17 13:03:11;;;;;;;3.50;2.30;;;24.30;87.80;;;;;;5167932;28;20482;-52
2022/10/17 13:05:49;;;;;;;6.20;3.27;;;24.20;87.80;;;;;;5170273;28;20432;-51
2022/10/17 13:08:33;;;;;;;2.77;2.57;;;24.10;88.50;;;;;;5168837;28;20458;-53
2022/10/17 13:11:05;;;;;;;2.20;2.10;;;24.30;88.50;;;;;;5170389;28;20486;-53
2022/10/17 13:13:47;;;;;;;3.77;2.37;;;24.30;88.30;;;;;;5172192;28;20790;-53
2022/10/17 13:16:50;;;;;;;2.83;2.63;;;24.20;88.30;;;;;;5173061;28;20959;-52
2022/10/17 13:19:28;;;;;;;7.50;2.87;;;24.30;87.40;;;;;;5170989;28;20546;-55
2022/10/17 13:22:01;;;;;;;3.57;2.97;;;24.30;87.20;;;;;;5171106;28;20435;-54
2022/10/17 13:24:37;;;;;;;3.43;2.50;;;24.30;87.40;;;;;;5161516;28;20443;-51
2022/10/17 13:27:30;;;;;;;2.10;1.90;;;24.30;87.40;;;;;;5165583;28;20904;-51
2022/10/17 13:30:20;;;;;;;3.73;3.10;;;24.30;87.10;;;;;;5167851;28;20463;-52
2022/10/17 13:32:50;;;;;;;3.53;2.47;;;24.30;87.50;;;;;;5163745;28;20468;-52
2022/10/17 13:35:39;;;;;;;3.00;2.63;;;24.60;86.90;;;;;;5168906;28;20977;-51